createdAt,value
2023-03-29T00:00:48.664Z,0.00
2023-03-29T00:01:48.680Z,0.00
2023-03-29T00:02:48.924Z,0.00
2023-03-29T00:03:48.692Z,0.00
2023-03-29T00:04:48.623Z,0.00
2023-03-29T00:05:48.621Z,0.00
2023-03-29T00:06:48.629Z,0.00
2023-03-29T00:07:48.601Z,0.00
2023-03-29T00:08:48.585Z,0.00
2023-03-29T00:09:48.581Z,0.00
2023-03-29T00:10:48.562Z,0.00
2023-03-29T00:11:48.596Z,0.00
2023-03-29T00:12:48.583Z,0.00
2023-03-29T00:13:48.536Z,0.00
2023-03-29T00:14:48.544Z,0.00
2023-03-29T00:15:48.560Z,0.00
2023-03-29T00:16:48.528Z,0.00
2023-03-29T00:17:48.555Z,0.00
2023-03-29T00:18:48.475Z,0.00
2023-03-29T00:19:48.591Z,0.00
2023-03-29T00:20:48.493Z,0.00
2023-03-29T00:21:48.466Z,0.00
2023-03-29T00:22:48.432Z,0.00
2023-03-29T00:23:48.437Z,0.00
2023-03-29T00:24:48.421Z,0.00
2023-03-29T00:25:48.416Z,0.00
2023-03-29T00:26:48.449Z,0.00
2023-03-29T00:27:48.407Z,0.00
2023-03-29T00:28:48.379Z,0.00
2023-03-29T00:29:48.371Z,0.00
2023-03-29T00:30:48.353Z,0.00
2023-03-29T00:31:48.435Z,0.00
2023-03-29T00:32:48.402Z,0.00
2023-03-29T00:33:48.331Z,0.00
2023-03-29T00:34:48.313Z,0.00
2023-03-29T00:35:48.335Z,0.00
2023-03-29T00:36:48.348Z,0.00
2023-03-29T00:37:48.291Z,0.00
2023-03-29T00:38:48.272Z,0.00
2023-03-29T00:39:48.294Z,0.00
2023-03-29T00:40:48.264Z,0.00
2023-03-29T00:41:48.253Z,0.00
2023-03-29T00:42:48.284Z,0.00
2023-03-29T00:43:48.232Z,0.00
2023-03-29T00:44:48.214Z,0.00
2023-03-29T00:45:48.232Z,0.00
2023-03-29T00:46:48.289Z,0.00
2023-03-29T00:47:48.211Z,0.00
2023-03-29T00:48:48.176Z,0.00
2023-03-29T00:49:48.168Z,0.00
2023-03-29T00:50:48.148Z,0.00
2023-03-29T00:51:48.169Z,0.00
2023-03-29T00:52:48.149Z,0.00
2023-03-29T00:53:48.122Z,0.00
2023-03-29T00:54:48.106Z,0.00
2023-03-29T00:55:48.125Z,0.00
2023-03-29T00:56:48.147Z,0.00
2023-03-29T00:57:48.102Z,0.00
2023-03-29T00:58:48.075Z,0.00
2023-03-29T00:59:48.091Z,0.00
2023-03-29T01:00:48.044Z,0.00
2023-03-29T01:01:48.158Z,0.00
2023-03-29T01:02:48.085Z,0.00
2023-03-29T01:03:48.096Z,0.00
2023-03-29T01:04:48.008Z,0.00
2023-03-29T01:05:48.000Z,0.00
2023-03-29T01:06:48.012Z,0.00
2023-03-29T01:07:48.045Z,0.00
2023-03-29T01:08:47.969Z,0.00
2023-03-29T01:09:47.965Z,0.00
2023-03-29T01:10:47.948Z,0.00
2023-03-29T01:11:47.964Z,0.00
2023-03-29T01:12:47.963Z,0.00
2023-03-29T01:13:47.930Z,0.00
2023-03-29T01:14:47.937Z,0.00
2023-03-29T01:15:47.918Z,0.00
2023-03-29T01:16:47.917Z,0.00
2023-03-29T01:17:47.940Z,0.00
2023-03-29T01:18:47.870Z,0.00
2023-03-29T01:19:47.871Z,0.00
2023-03-29T01:20:47.859Z,0.00
2023-03-29T01:21:47.865Z,0.00
2023-03-29T01:22:47.839Z,0.00
2023-03-29T01:23:47.851Z,0.00
2023-03-29T01:24:47.833Z,0.00
2023-03-29T01:25:47.801Z,0.00
2023-03-29T01:26:47.803Z,0.00
2023-03-29T01:27:47.824Z,0.00
2023-03-29T01:28:47.770Z,0.00
2023-03-29T01:29:47.763Z,0.00
2023-03-29T01:30:47.767Z,0.00
2023-03-29T01:31:47.804Z,0.00
2023-03-29T01:32:47.853Z,0.00
2023-03-29T01:33:47.735Z,0.00
2023-03-29T01:34:47.709Z,0.00
2023-03-29T01:35:47.714Z,0.00
2023-03-29T01:36:47.705Z,0.00
2023-03-29T01:37:47.694Z,0.00
2023-03-29T01:38:47.672Z,0.00
2023-03-29T01:39:47.672Z,0.00
2023-03-29T01:40:47.665Z,0.00
2023-03-29T01:41:47.642Z,0.00
2023-03-29T01:42:47.650Z,0.00
2023-03-29T01:43:47.616Z,0.00
2023-03-29T01:44:47.611Z,0.00
2023-03-29T01:45:47.615Z,0.00
2023-03-29T01:46:47.598Z,0.00
2023-03-29T01:47:47.704Z,0.00
2023-03-29T01:48:47.591Z,0.00
2023-03-29T01:49:47.563Z,0.00
2023-03-29T01:50:47.560Z,0.00
2023-03-29T01:51:47.600Z,0.00
2023-03-29T01:52:47.549Z,0.00
2023-03-29T01:53:47.519Z,0.00
2023-03-29T01:54:47.536Z,0.00
2023-03-29T01:55:47.502Z,0.00
2023-03-29T01:56:47.514Z,0.00
2023-03-29T01:57:47.498Z,0.00
2023-03-29T01:58:47.473Z,0.00
2023-03-29T01:59:47.479Z,0.00
2023-03-29T02:00:47.459Z,0.00
2023-03-29T02:01:47.510Z,0.00
2023-03-29T02:02:47.506Z,0.00
2023-03-29T02:03:47.462Z,0.00
2023-03-29T02:04:47.423Z,0.00
2023-03-29T02:05:47.394Z,0.00
2023-03-29T02:06:47.391Z,0.00
2023-03-29T02:07:47.404Z,0.00
2023-03-29T02:08:47.382Z,0.00
2023-03-29T02:09:47.350Z,0.00
2023-03-29T02:10:47.348Z,0.00
2023-03-29T02:11:47.339Z,0.00
2023-03-29T02:12:47.372Z,0.00
2023-03-29T02:13:47.314Z,0.00
2023-03-29T02:14:47.309Z,0.00
2023-03-29T02:15:47.391Z,0.00
2023-03-29T02:16:47.284Z,0.00
2023-03-29T02:17:47.316Z,0.00
2023-03-29T02:18:47.276Z,0.00
2023-03-29T02:19:47.252Z,0.00
2023-03-29T02:20:47.271Z,0.00
2023-03-29T02:21:47.251Z,0.00
2023-03-29T02:22:47.242Z,0.00
2023-03-29T02:23:47.211Z,0.00
2023-03-29T02:24:47.217Z,0.00
2023-03-29T02:25:47.285Z,0.00
2023-03-29T02:26:47.190Z,0.00
2023-03-29T02:27:47.226Z,0.00
2023-03-29T02:28:47.191Z,0.00
2023-03-29T02:29:47.167Z,0.00
2023-03-29T02:30:47.331Z,0.00
2023-03-29T02:31:47.160Z,0.00
2023-03-29T02:32:47.143Z,0.00
2023-03-29T02:33:47.128Z,0.00
2023-03-29T02:34:47.112Z,0.00
2023-03-29T02:35:47.104Z,0.00
2023-03-29T02:36:47.101Z,0.00
2023-03-29T02:37:53.628Z,0.00
2023-03-29T02:38:47.677Z,0.00
2023-03-29T02:39:47.054Z,0.00
2023-03-29T02:40:47.752Z,0.00
2023-03-29T02:41:47.049Z,0.00
2023-03-29T02:42:47.054Z,0.00
2023-03-29T02:43:47.014Z,0.00
2023-03-29T02:44:47.008Z,0.00
2023-03-29T02:45:46.998Z,0.00
2023-03-29T02:46:47.027Z,0.00
2023-03-29T02:47:47.014Z,0.00
2023-03-29T02:48:46.972Z,0.00
2023-03-29T02:49:46.960Z,0.00
2023-03-29T02:50:46.958Z,0.00
2023-03-29T02:51:46.939Z,0.00
2023-03-29T02:52:46.949Z,0.00
2023-03-29T02:53:46.916Z,0.00
2023-03-29T02:54:46.922Z,0.00
2023-03-29T02:55:46.905Z,0.00
2023-03-29T02:56:46.917Z,0.00
2023-03-29T02:57:46.916Z,0.00
2023-03-29T02:58:46.952Z,0.00
2023-03-29T02:59:46.861Z,0.00
2023-03-29T03:00:46.856Z,0.00
2023-03-29T03:01:46.894Z,0.00
2023-03-29T03:02:46.921Z,0.00
2023-03-29T03:03:46.913Z,0.00
2023-03-29T03:04:46.825Z,0.00
2023-03-29T03:05:46.804Z,0.00
2023-03-29T03:06:46.812Z,0.00
2023-03-29T03:07:46.783Z,0.00
2023-03-29T03:08:46.817Z,0.00
2023-03-29T03:09:46.773Z,0.00
2023-03-29T03:10:46.756Z,0.00
2023-03-29T03:11:46.753Z,0.00
2023-03-29T03:12:46.740Z,0.00
2023-03-29T03:13:46.723Z,0.00
2023-03-29T03:14:46.743Z,0.00
2023-03-29T03:15:46.705Z,0.00
2023-03-29T03:16:46.832Z,0.00
2023-03-29T03:17:46.768Z,0.00
2023-03-29T03:18:46.692Z,0.00
2023-03-29T03:19:46.695Z,0.00
2023-03-29T03:20:46.675Z,0.00
2023-03-29T03:21:46.636Z,0.00
2023-03-29T03:22:46.634Z,0.00
2023-03-29T03:23:46.637Z,0.00
2023-03-29T03:24:46.625Z,0.00
2023-03-29T03:25:46.597Z,0.00
2023-03-29T03:26:46.596Z,0.00
2023-03-29T03:27:46.585Z,0.00
2023-03-29T03:28:46.604Z,0.00
2023-03-29T03:29:46.579Z,0.00
2023-03-29T03:30:46.577Z,0.00
2023-03-29T03:31:46.567Z,0.00
2023-03-29T03:32:46.592Z,0.00
2023-03-29T03:33:46.533Z,0.00
2023-03-29T03:34:46.539Z,0.00
2023-03-29T03:35:46.649Z,0.00
2023-03-29T03:36:46.487Z,0.00
2023-03-29T03:37:46.479Z,0.00
2023-03-29T03:38:46.482Z,0.00
2023-03-29T03:39:46.490Z,0.00
2023-03-29T03:40:46.448Z,0.00
2023-03-29T03:41:46.445Z,0.00
2023-03-29T03:42:46.431Z,0.00
2023-03-29T03:43:46.431Z,0.00
2023-03-29T03:44:46.436Z,0.00
2023-03-29T03:45:46.421Z,0.00
2023-03-29T03:46:46.388Z,0.00
2023-03-29T03:47:46.401Z,0.00
2023-03-29T03:48:46.407Z,0.00
2023-03-29T03:49:46.355Z,0.00
2023-03-29T03:50:46.361Z,0.00
2023-03-29T03:51:46.340Z,0.00
2023-03-29T03:52:46.329Z,0.00
2023-03-29T03:53:46.333Z,0.00
2023-03-29T03:54:46.309Z,0.00
2023-03-29T03:55:46.293Z,0.00
2023-03-29T03:56:46.306Z,0.00
2023-03-29T03:57:46.278Z,0.00
2023-03-29T03:58:46.300Z,0.00
2023-03-29T03:59:46.257Z,0.00
2023-03-29T04:00:46.258Z,0.00
2023-03-29T04:01:46.264Z,0.00
2023-03-29T04:02:46.426Z,0.00
2023-03-29T04:03:46.402Z,0.00
2023-03-29T04:04:46.342Z,0.00
2023-03-29T04:05:46.244Z,0.00
2023-03-29T04:06:46.227Z,0.00
2023-03-29T04:07:46.236Z,0.00
2023-03-29T04:08:46.201Z,0.00
2023-03-29T04:09:46.162Z,0.00
2023-03-29T04:10:46.221Z,0.00
2023-03-29T04:11:46.140Z,0.00
2023-03-29T04:12:46.135Z,0.00
2023-03-29T04:13:46.140Z,0.00
2023-03-29T04:14:46.115Z,0.00
2023-03-29T04:15:46.146Z,0.00
2023-03-29T04:16:46.092Z,0.00
2023-03-29T04:17:46.144Z,0.00
2023-03-29T04:18:46.134Z,0.00
2023-03-29T04:19:46.057Z,0.00
2023-03-29T04:20:46.065Z,0.00
2023-03-29T04:21:46.072Z,0.00
2023-03-29T04:22:46.032Z,0.00
2023-03-29T04:23:46.047Z,0.00
2023-03-29T04:24:46.006Z,0.00
2023-03-29T04:25:45.990Z,0.00
2023-03-29T04:26:46.008Z,0.00
2023-03-29T04:27:46.007Z,0.00
2023-03-29T04:28:46.023Z,0.00
2023-03-29T04:29:45.958Z,0.00
2023-03-29T04:30:46.037Z,0.00
2023-03-29T04:31:46.064Z,0.00
2023-03-29T04:32:45.983Z,0.00
2023-03-29T04:33:45.907Z,1.00
2023-03-29T04:34:45.927Z,0.00
2023-03-29T04:35:45.905Z,1.00
2023-03-29T04:36:45.870Z,1.00
2023-03-29T04:37:45.835Z,1.00
2023-03-29T04:38:47.782Z,1.00
2023-03-29T04:39:45.810Z,2.00
2023-03-29T04:40:45.801Z,2.00
2023-03-29T04:41:45.793Z,2.00
2023-03-29T04:42:45.794Z,2.00
2023-03-29T04:43:45.790Z,3.00
2023-03-29T04:44:45.786Z,2.00
2023-03-29T04:45:45.764Z,2.00
2023-03-29T04:46:45.845Z,5.00
2023-03-29T04:47:45.828Z,4.00
2023-03-29T04:48:45.737Z,6.00
2023-03-29T04:49:45.722Z,8.00
2023-03-29T04:50:45.702Z,9.00
2023-03-29T04:51:45.701Z,8.00
2023-03-29T04:52:45.772Z,12.00
2023-03-29T04:53:45.681Z,13.00
2023-03-29T04:54:45.667Z,14.00
2023-03-29T04:55:45.672Z,15.00
2023-03-29T04:56:45.667Z,22.00
2023-03-29T04:57:45.657Z,24.00
2023-03-29T04:58:45.635Z,32.00
2023-03-29T04:59:45.640Z,31.00
2023-03-29T05:00:45.629Z,37.00
2023-03-29T05:01:45.669Z,43.00
2023-03-29T05:02:45.605Z,50.00
2023-03-29T05:03:45.641Z,52.00
2023-03-29T05:04:45.632Z,60.00
2023-03-29T05:05:45.546Z,73.00
2023-03-29T05:06:45.554Z,78.00
2023-03-29T05:07:45.534Z,89.00
2023-03-29T05:08:45.554Z,93.00
2023-03-29T05:09:45.506Z,102.00
2023-03-29T05:10:45.498Z,110.00
2023-03-29T05:11:45.515Z,121.00
2023-03-29T05:12:45.486Z,127.00
2023-03-29T05:13:45.474Z,142.00
2023-03-29T05:14:45.459Z,152.00
2023-03-29T05:15:45.452Z,178.00
2023-03-29T05:16:45.527Z,211.00
2023-03-29T05:17:45.529Z,234.00
2023-03-29T05:18:45.446Z,245.00
2023-03-29T05:19:45.407Z,254.00
2023-03-29T05:20:45.416Z,263.00
2023-03-29T05:21:45.673Z,275.00
2023-03-29T05:22:45.376Z,293.00
2023-03-29T05:23:45.404Z,316.00
2023-03-29T05:24:45.359Z,349.00
2023-03-29T05:25:45.341Z,393.00
2023-03-29T05:26:45.348Z,449.00
2023-03-29T05:27:45.327Z,510.00
2023-03-29T05:28:45.342Z,559.00
2023-03-29T05:29:45.308Z,593.00
2023-03-29T05:30:45.297Z,627.00
2023-03-29T05:31:45.312Z,668.00
2023-03-29T05:32:45.341Z,713.00
2023-03-29T05:33:45.286Z,755.00
2023-03-29T05:34:45.263Z,787.00
2023-03-29T05:35:45.298Z,779.00
2023-03-29T05:36:45.234Z,763.00
2023-03-29T05:37:45.221Z,754.00
2023-03-29T05:38:45.248Z,790.00
2023-03-29T05:39:45.204Z,886.00
2023-03-29T05:40:45.199Z,973.00
2023-03-29T05:41:45.201Z,1045.00
2023-03-29T05:42:45.177Z,1102.00
2023-03-29T05:43:45.190Z,1199.00
2023-03-29T05:44:45.156Z,1230.00
2023-03-29T05:45:45.191Z,1241.00
2023-03-29T05:46:45.137Z,1319.00
2023-03-29T05:47:45.131Z,1362.00
2023-03-29T05:48:45.135Z,1442.00
2023-03-29T05:49:45.108Z,1566.00
2023-03-29T05:50:46.257Z,1577.00
2023-03-29T05:51:45.100Z,1693.00
2023-03-29T05:52:45.074Z,1848.00
2023-03-29T05:53:45.090Z,1892.00
2023-03-29T05:54:45.087Z,1828.00
2023-03-29T05:55:45.045Z,1995.00
2023-03-29T05:56:45.090Z,2114.00
2023-03-29T05:57:45.045Z,1966.00
2023-03-29T05:58:45.033Z,1840.00
2023-03-29T05:59:45.011Z,1876.00
2023-03-29T06:00:45.000Z,2132.00
2023-03-29T06:01:44.989Z,2378.00
2023-03-29T06:02:45.143Z,2603.00
2023-03-29T06:03:45.080Z,2683.00
2023-03-29T06:04:45.042Z,2884.00
2023-03-29T06:05:45.878Z,3062.00
2023-03-29T06:06:44.981Z,3296.00
2023-03-29T06:07:44.963Z,3074.00
2023-03-29T06:08:45.007Z,2955.00
2023-03-29T06:09:44.958Z,2887.00
2023-03-29T06:10:44.967Z,2761.00
2023-03-29T06:11:45.007Z,2775.00
2023-03-29T06:12:44.983Z,2787.00
2023-03-29T06:13:44.865Z,2815.00
2023-03-29T06:14:44.867Z,2884.00
2023-03-29T06:15:44.900Z,3160.00
2023-03-29T06:16:44.870Z,3401.00
2023-03-29T06:17:44.860Z,3414.00
2023-03-29T06:18:44.830Z,3454.00
2023-03-29T06:19:44.821Z,3569.00
2023-03-29T06:20:44.792Z,3634.00
2023-03-29T06:21:44.788Z,3649.00
2023-03-29T06:22:44.769Z,3651.00
2023-03-29T06:23:44.769Z,3683.00
2023-03-29T06:24:44.813Z,3688.00
2023-03-29T06:25:44.747Z,3621.00
2023-03-29T06:26:44.737Z,3481.00
2023-03-29T06:27:44.733Z,4010.00
2023-03-29T06:28:44.733Z,3194.00
2023-03-29T06:29:44.722Z,3138.00
2023-03-29T06:30:44.706Z,3368.00
2023-03-29T06:31:44.774Z,3493.00
2023-03-29T06:32:44.725Z,3212.00
2023-03-29T06:33:44.665Z,3127.00
2023-03-29T06:34:44.686Z,3043.00
2023-03-29T06:35:44.740Z,3016.00
2023-03-29T06:36:44.633Z,3083.00
2023-03-29T06:37:44.635Z,3125.00
2023-03-29T06:38:44.634Z,3039.00
2023-03-29T06:39:44.628Z,2921.00
2023-03-29T06:40:44.627Z,2913.00
2023-03-29T06:41:44.588Z,2776.00
2023-03-29T06:42:44.578Z,2577.00
2023-03-29T06:43:44.573Z,2462.00
2023-03-29T06:44:44.569Z,2558.00
2023-03-29T06:45:44.699Z,2680.00
2023-03-29T06:46:44.591Z,2665.00
2023-03-29T06:47:44.623Z,2698.00
2023-03-29T06:48:44.509Z,3026.00
2023-03-29T06:49:44.523Z,3191.00
2023-03-29T06:50:44.489Z,3158.00
2023-03-29T06:51:44.485Z,3088.00
2023-03-29T06:52:44.820Z,3309.00
2023-03-29T06:53:44.475Z,3713.00
2023-03-29T06:54:44.475Z,4027.00
2023-03-29T06:55:44.456Z,4013.00
2023-03-29T06:56:44.454Z,4069.00
2023-03-29T06:57:44.423Z,4082.00
2023-03-29T06:58:44.418Z,3891.00
2023-03-29T06:59:44.436Z,3838.00
2023-03-29T07:00:44.382Z,4312.00
2023-03-29T07:01:44.463Z,4914.00
2023-03-29T07:02:44.461Z,5340.00
2023-03-29T07:03:46.509Z,5180.00
2023-03-29T07:04:44.476Z,5221.00
2023-03-29T07:05:44.344Z,5302.00
2023-03-29T07:06:44.318Z,5347.00
2023-03-29T07:07:44.321Z,5221.00
2023-03-29T07:08:44.321Z,4927.00
2023-03-29T07:09:44.324Z,4334.00
2023-03-29T07:10:44.417Z,4264.00
2023-03-29T07:11:44.274Z,4058.00
2023-03-29T07:12:44.333Z,3834.00
2023-03-29T07:13:44.270Z,3284.00
2023-03-29T07:14:46.274Z,2883.00
2023-03-29T07:15:44.231Z,2995.00
2023-03-29T07:16:44.311Z,3237.00
2023-03-29T07:17:44.290Z,3023.00
2023-03-29T07:18:44.236Z,3326.00
2023-03-29T07:19:44.241Z,2895.00
2023-03-29T07:20:44.193Z,2691.00
2023-03-29T07:21:44.214Z,3071.00
2023-03-29T07:22:44.158Z,3739.00
2023-03-29T07:23:44.161Z,3582.00
2023-03-29T07:24:44.161Z,3161.00
2023-03-29T07:25:44.136Z,2948.00
2023-03-29T07:26:56.292Z,2601.00
2023-03-29T07:27:44.114Z,2443.00
2023-03-29T07:28:44.110Z,2521.00
2023-03-29T07:29:44.124Z,2709.00
2023-03-29T07:30:44.226Z,2883.00
2023-03-29T07:31:44.095Z,2480.00
2023-03-29T07:32:44.162Z,2033.00
2023-03-29T07:33:44.149Z,2142.00
2023-03-29T07:34:44.445Z,2382.00
2023-03-29T07:35:44.036Z,2276.00
2023-03-29T07:36:44.023Z,2366.00
2023-03-29T07:37:44.012Z,2687.00
2023-03-29T07:38:43.989Z,2822.00
2023-03-29T07:39:44.016Z,3008.00
2023-03-29T07:40:44.018Z,3290.00
2023-03-29T07:41:43.963Z,3180.00
2023-03-29T07:42:43.976Z,2712.00
2023-03-29T07:43:43.935Z,2626.00
2023-03-29T07:44:43.954Z,2723.00
2023-03-29T07:45:43.964Z,2588.00
2023-03-29T07:46:43.939Z,2714.00
2023-03-29T07:47:43.944Z,3030.00
2023-03-29T07:48:43.878Z,3019.00
2023-03-29T07:49:43.902Z,3000.00
2023-03-29T07:50:43.878Z,3288.00
2023-03-29T07:51:43.902Z,3136.00
2023-03-29T07:52:43.872Z,3276.00
2023-03-29T07:53:43.859Z,3625.00
2023-03-29T07:54:43.889Z,3703.00
2023-03-29T07:55:45.835Z,3782.00
2023-03-29T07:56:43.831Z,3705.00
2023-03-29T07:57:43.934Z,3791.00
2023-03-29T07:58:43.829Z,4022.00
2023-03-29T07:59:43.866Z,4223.00
2023-03-29T08:00:43.828Z,4038.00
2023-03-29T08:01:43.763Z,3305.00
2023-03-29T08:02:43.760Z,3102.00
2023-03-29T08:03:43.754Z,3584.00
2023-03-29T08:04:43.757Z,3444.00
2023-03-29T08:05:43.738Z,3242.00
2023-03-29T08:06:43.693Z,3626.00
2023-03-29T08:07:43.698Z,4083.00
2023-03-29T08:08:43.671Z,4706.00
2023-03-29T08:09:43.682Z,4106.00
2023-03-29T08:10:43.659Z,3091.00
2023-03-29T08:11:43.647Z,3523.00
2023-03-29T08:12:43.638Z,4505.00
2023-03-29T08:13:43.648Z,4520.00
2023-03-29T08:14:43.626Z,3707.00
2023-03-29T08:15:43.612Z,3001.00
2023-03-29T08:16:43.635Z,2663.00
2023-03-29T08:17:43.689Z,3089.00
2023-03-29T08:18:43.576Z,3469.00
2023-03-29T08:19:51.294Z,3694.00
2023-03-29T08:20:43.559Z,3262.00
2023-03-29T08:21:43.554Z,3602.00
2023-03-29T08:22:43.632Z,3960.00
2023-03-29T08:23:43.534Z,4411.00
2023-03-29T08:24:43.533Z,4632.00
2023-03-29T08:25:43.518Z,4896.00
2023-03-29T08:26:43.521Z,3901.00
2023-03-29T08:27:43.508Z,3379.00
2023-03-29T08:28:43.476Z,3193.00
2023-03-29T08:29:43.591Z,3111.00
2023-03-29T08:30:43.492Z,2924.00
2023-03-29T08:31:43.457Z,2948.00
2023-03-29T08:32:43.499Z,3094.00
2023-03-29T08:33:43.472Z,3220.00
2023-03-29T08:34:43.442Z,3525.00
2023-03-29T08:35:43.440Z,4365.00
2023-03-29T08:36:43.415Z,3612.00
2023-03-29T08:37:43.407Z,3469.00
2023-03-29T08:38:43.390Z,3553.00
2023-03-29T08:39:51.259Z,3539.00
2023-03-29T08:40:43.516Z,5074.00
2023-03-29T08:41:43.420Z,4447.00
2023-03-29T08:42:43.373Z,4258.00
2023-03-29T08:43:43.340Z,5377.00
2023-03-29T08:44:43.324Z,5796.00
2023-03-29T08:45:43.379Z,5560.00
2023-03-29T08:46:43.445Z,4781.00
2023-03-29T08:47:43.320Z,4432.00
2023-03-29T08:48:43.307Z,4400.00
2023-03-29T08:49:43.278Z,5331.00
2023-03-29T08:50:43.279Z,4521.00
2023-03-29T08:51:43.266Z,7780.00
2023-03-29T08:52:43.245Z,6886.00
2023-03-29T08:53:43.233Z,6415.00
2023-03-29T08:54:43.224Z,5279.00
2023-03-29T08:55:43.240Z,4541.00
2023-03-29T08:56:43.325Z,4880.00
2023-03-29T08:57:43.203Z,5286.00
2023-03-29T08:58:43.182Z,5255.00
2023-03-29T08:59:43.174Z,5845.00
2023-03-29T09:00:43.205Z,5239.00
2023-03-29T09:01:43.210Z,5737.00
2023-03-29T09:02:43.164Z,4096.00
2023-03-29T09:03:43.242Z,5501.00
2023-03-29T09:04:43.114Z,6220.00
2023-03-29T09:05:43.134Z,7130.00
2023-03-29T09:06:43.140Z,7029.00
2023-03-29T09:07:43.086Z,7673.00
2023-03-29T09:08:43.099Z,7193.00
2023-03-29T09:09:43.074Z,6509.00
2023-03-29T09:10:43.071Z,6648.00
2023-03-29T09:11:43.046Z,8056.00
2023-03-29T09:12:43.053Z,9348.00
2023-03-29T09:13:43.025Z,10477.00
2023-03-29T09:14:43.009Z,10856.00
2023-03-29T09:15:43.031Z,11731.00
2023-03-29T09:16:42.989Z,11557.00
2023-03-29T09:17:43.045Z,11361.00
2023-03-29T09:18:42.976Z,11413.00
2023-03-29T09:19:42.965Z,11013.00
2023-03-29T09:20:42.971Z,10287.00
2023-03-29T09:21:42.946Z,11090.00
2023-03-29T09:22:42.935Z,11247.00
2023-03-29T09:23:42.942Z,9640.00
2023-03-29T09:24:42.905Z,8627.00
2023-03-29T09:25:52.600Z,9418.00
2023-03-29T09:26:42.886Z,9749.00
2023-03-29T09:27:42.879Z,8731.00
2023-03-29T09:28:42.917Z,8003.00
2023-03-29T09:29:42.869Z,8387.00
2023-03-29T09:30:42.864Z,8452.00
2023-03-29T09:31:42.910Z,8613.00
2023-03-29T09:32:42.902Z,9416.00
2023-03-29T09:33:42.885Z,9841.00
2023-03-29T09:34:42.813Z,9286.00
2023-03-29T09:35:42.866Z,8090.00
2023-03-29T09:36:42.782Z,8358.00
2023-03-29T09:37:42.774Z,9448.00
2023-03-29T09:38:42.813Z,11118.00
2023-03-29T09:39:42.757Z,11329.00
2023-03-29T09:40:42.763Z,10554.00
2023-03-29T09:41:42.750Z,10630.00
2023-03-29T09:42:42.718Z,10895.00
2023-03-29T09:43:42.717Z,10462.00
2023-03-29T09:44:42.706Z,10070.00
2023-03-29T09:45:42.783Z,11482.00
2023-03-29T09:46:42.679Z,12203.00
2023-03-29T09:47:42.702Z,12622.00
2023-03-29T09:48:42.680Z,11513.00
2023-03-29T09:49:42.650Z,9956.00
2023-03-29T09:50:42.667Z,11505.00
2023-03-29T09:51:42.633Z,13767.00
2023-03-29T09:52:42.614Z,12929.00
2023-03-29T09:53:42.614Z,11483.00
2023-03-29T09:54:42.598Z,12320.00
2023-03-29T09:55:42.622Z,15367.00
2023-03-29T09:56:42.602Z,12352.00
2023-03-29T09:57:42.571Z,11096.00
2023-03-29T09:58:42.553Z,10633.00
2023-03-29T09:59:42.574Z,10843.00
2023-03-29T10:00:42.547Z,11929.00
2023-03-29T10:01:42.578Z,11767.00
2023-03-29T10:02:42.529Z,10488.00
2023-03-29T10:03:42.531Z,9538.00
2023-03-29T10:04:42.520Z,12895.00
2023-03-29T10:05:42.496Z,13485.00
2023-03-29T10:06:42.478Z,13890.00
2023-03-29T10:07:42.475Z,15223.00
2023-03-29T10:08:42.467Z,12341.00
2023-03-29T10:09:42.442Z,6952.00
2023-03-29T10:10:42.457Z,7450.00
2023-03-29T10:11:42.419Z,14661.00
2023-03-29T10:12:42.417Z,18771.00
2023-03-29T10:13:42.395Z,19527.00
2023-03-29T10:14:42.414Z,26024.00
2023-03-29T10:15:42.414Z,27270.00
2023-03-29T10:16:42.458Z,25514.00
2023-03-29T10:17:42.518Z,24403.00
2023-03-29T10:18:42.353Z,22547.00
2023-03-29T10:19:42.374Z,18641.00
2023-03-29T10:20:42.409Z,14880.00
2023-03-29T10:21:42.356Z,14258.00
2023-03-29T10:22:42.315Z,15565.00
2023-03-29T10:23:42.300Z,18968.00
2023-03-29T10:24:42.301Z,21245.00
2023-03-29T10:25:42.961Z,26310.00
2023-03-29T10:26:42.270Z,23095.00
2023-03-29T10:27:42.287Z,18041.00
2023-03-29T10:28:42.258Z,14197.00
2023-03-29T10:29:42.268Z,12729.00
2023-03-29T10:30:42.265Z,14357.00
2023-03-29T10:31:42.226Z,17117.00
2023-03-29T10:32:42.239Z,17034.00
2023-03-29T10:33:42.199Z,16836.00
2023-03-29T10:34:42.183Z,14562.00
2023-03-29T10:35:42.264Z,16655.00
2023-03-29T10:36:42.171Z,19560.00
2023-03-29T10:37:42.162Z,19612.00
2023-03-29T10:38:42.151Z,19685.00
2023-03-29T10:39:42.129Z,20580.00
2023-03-29T10:40:42.163Z,21624.00
2023-03-29T10:41:42.108Z,22041.00
2023-03-29T10:42:42.100Z,25294.00
2023-03-29T10:43:42.093Z,33320.00
2023-03-29T10:44:42.088Z,29408.00
2023-03-29T10:45:42.280Z,28683.00
2023-03-29T10:46:42.130Z,27777.00
2023-03-29T10:47:42.089Z,24566.00
2023-03-29T10:48:42.041Z,22454.00
2023-03-29T10:49:42.025Z,26410.00
2023-03-29T10:50:42.120Z,29133.00
2023-03-29T10:51:42.018Z,27667.00
2023-03-29T10:52:42.011Z,25117.00
2023-03-29T10:53:41.981Z,21247.00
2023-03-29T10:54:41.990Z,25167.00
2023-03-29T10:55:41.982Z,25055.00
2023-03-29T10:56:42.009Z,34432.00
2023-03-29T10:57:41.936Z,27938.00
2023-03-29T10:58:41.939Z,22504.00
2023-03-29T10:59:41.920Z,20545.00
2023-03-29T11:00:41.932Z,38794.00
2023-03-29T11:01:41.951Z,27835.00
2023-03-29T11:02:42.017Z,27707.00
2023-03-29T11:03:42.048Z,23653.00
2023-03-29T11:04:41.882Z,39488.00
2023-03-29T11:05:41.861Z,29234.00
2023-03-29T11:06:41.860Z,23815.00
2023-03-29T11:07:41.832Z,28320.00
2023-03-29T11:08:41.826Z,26176.00
2023-03-29T11:09:41.811Z,36977.00
2023-03-29T11:10:41.844Z,20893.00
2023-03-29T11:11:41.806Z,37178.00
2023-03-29T11:12:41.807Z,26052.00
2023-03-29T11:13:41.775Z,18917.00
2023-03-29T11:14:41.787Z,16212.00
2023-03-29T11:15:41.803Z,19577.00
2023-03-29T11:16:41.787Z,19449.00
2023-03-29T11:17:41.795Z,24208.00
2023-03-29T11:18:41.730Z,19172.00
2023-03-29T11:19:41.732Z,11674.00
2023-03-29T11:20:41.711Z,13788.00
2023-03-29T11:21:41.703Z,8858.00
2023-03-29T11:22:41.707Z,22204.00
2023-03-29T11:23:41.679Z,23884.00
2023-03-29T11:24:41.665Z,18144.00
2023-03-29T11:25:41.643Z,15680.00
2023-03-29T11:26:41.677Z,18768.00
2023-03-29T11:27:41.633Z,16069.00
2023-03-29T11:28:42.605Z,18342.00
2023-03-29T11:29:41.621Z,16463.00
2023-03-29T11:30:41.625Z,21409.00
2023-03-29T11:31:41.665Z,19996.00
2023-03-29T11:32:41.656Z,24610.00
2023-03-29T11:33:41.589Z,24520.00
2023-03-29T11:34:41.562Z,22714.00
2023-03-29T11:35:41.558Z,25027.00
2023-03-29T11:36:41.570Z,28357.00
2023-03-29T11:37:41.525Z,23897.00
2023-03-29T11:38:43.289Z,19708.00
2023-03-29T11:39:41.510Z,17925.00
2023-03-29T11:40:41.498Z,16257.00
2023-03-29T11:41:41.500Z,15597.00
2023-03-29T11:42:41.476Z,14116.00
2023-03-29T11:43:41.463Z,16508.00
2023-03-29T11:44:41.488Z,18937.00
2023-03-29T11:45:41.443Z,22205.00
2023-03-29T11:46:41.487Z,20488.00
2023-03-29T11:47:41.438Z,21823.00
2023-03-29T11:48:41.408Z,29662.00
2023-03-29T11:49:41.401Z,29015.00
2023-03-29T11:50:41.391Z,28116.00
2023-03-29T11:51:41.417Z,22299.00
2023-03-29T11:52:41.372Z,23024.00
2023-03-29T11:53:41.358Z,18130.00
2023-03-29T11:54:41.358Z,16094.00
2023-03-29T11:55:41.360Z,19003.00
2023-03-29T11:56:41.448Z,16905.00
2023-03-29T11:57:41.338Z,14686.00
2023-03-29T11:58:41.333Z,14257.00
2023-03-29T11:59:41.289Z,20311.00
2023-03-29T12:00:41.303Z,22226.00
2023-03-29T12:01:41.320Z,21512.00
2023-03-29T12:02:41.457Z,21445.00
2023-03-29T12:03:41.843Z,17939.00
2023-03-29T12:04:41.250Z,17797.00
2023-03-29T12:05:41.232Z,19324.00
2023-03-29T12:06:41.258Z,17949.00
2023-03-29T12:07:41.221Z,14833.00
2023-03-29T12:08:41.199Z,11781.00
2023-03-29T12:09:41.198Z,13004.00
2023-03-29T12:10:41.212Z,14110.00
2023-03-29T12:11:41.188Z,13370.00
2023-03-29T12:12:41.198Z,12026.00
2023-03-29T12:13:41.158Z,12021.00
2023-03-29T12:14:41.142Z,11046.00
2023-03-29T12:15:41.144Z,8820.00
2023-03-29T12:16:41.194Z,7283.00
2023-03-29T12:17:41.159Z,8135.00
2023-03-29T12:18:41.112Z,9014.00
2023-03-29T12:19:43.344Z,11448.00
2023-03-29T12:20:41.077Z,13084.00
2023-03-29T12:21:41.091Z,12575.00
2023-03-29T12:22:41.067Z,11620.00
2023-03-29T12:23:41.041Z,9648.00
2023-03-29T12:24:41.045Z,7340.00
2023-03-29T12:25:41.023Z,7275.00
2023-03-29T12:26:41.031Z,9360.00
2023-03-29T12:27:41.014Z,10096.00
2023-03-29T12:28:41.010Z,9315.00
2023-03-29T12:29:40.999Z,8302.00